createdAt,value
2023-04-29T00:02:32.533Z,13.30
2023-04-29T00:06:37.216Z,13.30
2023-04-29T00:10:40.433Z,13.30
2023-04-29T00:14:43.879Z,13.20
2023-04-29T00:18:46.890Z,13.20
2023-04-29T00:22:51.233Z,13.20
2023-04-29T00:26:54.055Z,13.20
2023-04-29T00:30:57.248Z,13.10
2023-04-29T00:35:01.777Z,13.10
2023-04-29T00:39:05.983Z,13.10
2023-04-29T00:43:08.832Z,13.00
2023-04-29T00:47:11.804Z,13.00
2023-04-29T00:51:15.071Z,13.00
2023-04-29T00:55:19.455Z,13.00
2023-04-29T00:59:22.685Z,12.90
2023-04-29T01:03:25.739Z,12.90
2023-04-29T01:07:32.658Z,12.90
2023-04-29T01:11:41.200Z,12.80
2023-04-29T01:15:48.658Z,12.80
2023-04-29T01:19:53.655Z,12.80
2023-04-29T01:23:58.291Z,12.80
2023-04-29T01:28:05.827Z,12.70
2023-04-29T01:32:13.722Z,12.70
2023-04-29T01:36:20.021Z,12.70
2023-04-29T01:40:27.762Z,12.60
2023-04-29T01:44:31.802Z,12.60
2023-04-29T01:48:34.696Z,12.60
2023-04-29T01:52:37.839Z,12.60
2023-04-29T01:56:42.115Z,12.50
2023-04-29T02:00:44.988Z,12.50
2023-04-29T02:04:48.831Z,12.50
2023-04-29T02:08:53.520Z,12.50
2023-04-29T02:12:57.682Z,12.40
2023-04-29T02:17:00.577Z,12.40
2023-04-29T02:21:03.544Z,12.40
2023-04-29T02:25:07.184Z,12.30
2023-04-29T02:29:11.435Z,12.30
2023-04-29T02:33:14.348Z,12.20
2023-04-29T02:37:17.199Z,12.20
2023-04-29T02:41:22.162Z,12.10
2023-04-29T02:45:26.303Z,12.10
2023-04-29T02:49:29.162Z,12.10
2023-04-29T02:53:32.142Z,12.00
2023-04-29T02:57:34.992Z,12.00
2023-04-29T03:01:40.093Z,12.00
2023-04-29T03:05:43.039Z,11.90
2023-04-29T03:09:45.851Z,11.90
2023-04-29T03:13:48.668Z,11.80
2023-04-29T03:17:53.005Z,11.80
2023-04-29T03:21:55.869Z,11.70
2023-04-29T03:25:58.795Z,11.70
2023-04-29T03:30:02.128Z,11.70
2023-04-29T03:34:06.320Z,11.60
2023-04-29T03:38:09.154Z,11.60
2023-04-29T03:42:11.963Z,11.50
2023-04-29T03:46:14.804Z,11.50
2023-04-29T03:50:19.145Z,11.40
2023-04-29T03:54:21.968Z,11.40
2023-04-29T03:58:24.826Z,11.30
2023-04-29T04:02:28.687Z,11.30
2023-04-29T04:06:33.039Z,11.30
2023-04-29T04:10:35.925Z,11.30
2023-04-29T04:14:39.214Z,11.20
2023-04-29T04:18:42.037Z,11.20
2023-04-29T04:22:46.228Z,11.20
2023-04-29T04:26:51.101Z,11.20
2023-04-29T04:30:53.954Z,11.20
2023-04-29T04:34:57.328Z,11.10
2023-04-29T04:39:01.496Z,11.10
2023-04-29T04:43:04.484Z,11.10
2023-04-29T04:47:08.330Z,11.10
2023-04-29T04:51:11.461Z,11.10
2023-04-29T04:55:15.741Z,11.10
2023-04-29T04:59:18.528Z,11.10
2023-04-29T05:03:21.523Z,11.10
2023-04-29T05:07:24.458Z,11.10
2023-04-29T05:11:28.599Z,11.10
2023-04-29T05:15:32.795Z,11.10
2023-04-29T05:19:35.645Z,11.00
2023-04-29T05:23:40.667Z,11.00
2023-04-29T05:27:44.821Z,11.00
2023-04-29T05:31:47.646Z,11.00
2023-04-29T05:35:51.803Z,11.00
2023-04-29T05:39:54.789Z,11.00
2023-04-29T05:43:59.041Z,10.90
2023-04-29T05:48:02.314Z,10.90
2023-04-29T05:52:06.645Z,11.00
2023-04-29T05:56:09.909Z,10.90
2023-04-29T06:00:18.938Z,10.90
2023-04-29T06:04:22.982Z,10.90
2023-04-29T06:08:26.002Z,10.90
2023-04-29T06:12:34.752Z,10.90
2023-04-29T06:16:39.077Z,10.80
2023-04-29T06:20:41.886Z,10.80
2023-04-29T06:24:44.695Z,10.80
2023-04-29T06:28:47.651Z,10.80
2023-04-29T06:32:51.973Z,10.80
2023-04-29T06:36:54.814Z,10.80
2023-04-29T06:41:00.674Z,10.80
2023-04-29T06:45:03.532Z,10.80
2023-04-29T06:49:07.861Z,10.90
2023-04-29T06:53:10.685Z,10.90
2023-04-29T06:57:13.479Z,10.90
2023-04-29T07:01:16.811Z,10.90
2023-04-29T07:05:20.968Z,10.90
2023-04-29T07:09:26.522Z,10.90
2023-04-29T07:13:29.438Z,11.00
2023-04-29T07:17:32.302Z,11.00
2023-04-29T07:21:36.509Z,11.10
2023-04-29T07:25:40.966Z,11.10
2023-04-29T07:29:43.789Z,11.20
2023-04-29T07:33:47.406Z,11.20
2023-04-29T07:37:51.590Z,11.30
2023-04-29T07:41:54.385Z,11.30
2023-04-29T07:45:57.207Z,11.40
2023-04-29T07:50:00.066Z,11.50
2023-04-29T07:54:04.749Z,11.60
2023-04-29T07:58:07.568Z,11.70
2023-04-29T08:02:10.411Z,11.80
2023-04-29T08:06:13.355Z,11.90
2023-04-29T08:10:18.058Z,12.00
2023-04-29T08:14:20.984Z,12.10
2023-04-29T08:18:23.863Z,12.10
2023-04-29T08:22:26.687Z,12.30
2023-04-29T08:26:30.846Z,12.40
2023-04-29T08:30:33.681Z,12.50
2023-04-29T08:34:36.627Z,12.70
2023-04-29T08:38:39.460Z,13.00
2023-04-29T08:42:47.426Z,13.30
2023-04-29T08:46:51.995Z,13.60
2023-04-29T08:50:54.904Z,14.00
2023-04-29T08:54:57.795Z,14.30
2023-04-29T08:59:04.362Z,14.50
2023-04-29T09:03:12.486Z,14.70
2023-04-29T09:07:15.441Z,14.80
2023-04-29T09:11:18.761Z,14.80
2023-04-29T09:15:22.901Z,14.90
2023-04-29T09:19:32.265Z,14.90
2023-04-29T09:23:38.013Z,15.00
2023-04-29T09:27:40.818Z,14.90
2023-04-29T09:31:45.253Z,14.90
2023-04-29T09:35:48.810Z,14.90
2023-04-29T09:39:51.616Z,14.90
2023-04-29T09:44:04.193Z,14.90
2023-04-29T09:48:09.655Z,14.90
2023-04-29T09:52:13.059Z,14.90
2023-04-29T09:56:15.867Z,15.00
2023-04-29T10:00:18.920Z,15.00
2023-04-29T10:04:23.576Z,15.10
2023-04-29T10:08:26.508Z,15.30
2023-04-29T10:12:33.488Z,15.50
2023-04-29T10:16:41.967Z,15.70
2023-04-29T10:20:47.637Z,15.90
2023-04-29T10:24:50.690Z,16.10
2023-04-29T10:28:55.545Z,16.20
2023-04-29T10:33:02.119Z,16.40
2023-04-29T10:37:06.776Z,16.60
2023-04-29T10:41:11.596Z,16.60
2023-04-29T10:45:21.557Z,16.60
2023-04-29T10:49:25.494Z,16.50
2023-04-29T10:53:30.131Z,16.50
2023-04-29T10:57:32.942Z,16.50
2023-04-29T11:01:43.651Z,16.50
2023-04-29T11:05:46.820Z,16.40
2023-04-29T11:09:52.273Z,16.40
2023-04-29T11:13:55.326Z,16.30
2023-04-29T11:17:59.429Z,16.20
2023-04-29T11:22:18.182Z,16.00
2023-04-29T11:26:22.732Z,15.90
2023-04-29T11:30:27.057Z,15.80
2023-04-29T11:34:29.921Z,15.80
2023-04-29T11:38:33.443Z,15.70
2023-04-29T11:42:37.843Z,15.70
2023-04-29T11:46:40.702Z,15.70
2023-04-29T11:50:43.574Z,15.80
2023-04-29T11:54:48.430Z,15.90
2023-04-29T11:58:54.641Z,15.90
2023-04-29T12:02:57.624Z,15.80
2023-04-29T12:07:00.702Z,15.80
2023-04-29T12:11:03.993Z,15.80
2023-04-29T12:15:10.215Z,15.80
2023-04-29T12:19:13.289Z,15.80
2023-04-29T12:23:18.330Z,15.80
2023-04-29T12:27:21.767Z,15.80
2023-04-29T12:31:33.539Z,15.80
2023-04-29T12:35:36.571Z,15.70
2023-04-29T12:39:39.492Z,15.60
2023-04-29T12:43:42.646Z,15.60
2023-04-29T12:47:47.024Z,15.50
2023-04-29T12:51:49.830Z,15.50
2023-04-29T12:55:52.730Z,15.50
2023-04-29T12:59:56.072Z,15.60
2023-04-29T13:04:00.454Z,15.60
2023-04-29T13:08:05.739Z,15.60
2023-04-29T13:12:09.822Z,15.70
2023-04-29T13:16:12.804Z,15.70
2023-04-29T13:20:17.446Z,15.70
2023-04-29T13:24:20.998Z,15.70
2023-04-29T13:28:23.842Z,15.70
2023-04-29T13:32:37.993Z,15.80
2023-04-29T13:36:46.892Z,15.80
2023-04-29T13:40:51.511Z,15.90
2023-04-29T13:44:57.502Z,16.00
2023-04-29T13:53:30.445Z,16.30
2023-04-29T14:05:43.000Z,16.70
2023-04-29T14:09:47.420Z,17.00
2023-04-29T14:13:50.226Z,17.00
2023-04-29T14:17:53.485Z,17.00
2023-04-29T14:21:56.351Z,17.00
2023-04-29T14:30:06.993Z,17.10
2023-04-29T14:34:09.844Z,17.20
2023-04-29T14:38:12.664Z,17.20
2023-04-29T14:42:18.700Z,17.20
2023-04-29T14:46:22.547Z,17.10
2023-04-29T14:50:25.845Z,17.10
2023-04-29T14:54:29.204Z,17.10
2023-04-29T14:58:36.970Z,17.20
2023-04-29T15:02:41.158Z,17.10
2023-04-29T15:06:45.072Z,17.10
2023-04-29T15:10:48.162Z,17.10
2023-04-29T15:14:52.799Z,17.10
2023-04-29T15:18:57.106Z,17.00
2023-04-29T15:22:59.930Z,16.90
2023-04-29T15:27:03.494Z,16.80
2023-04-29T15:31:06.403Z,16.70
2023-04-29T15:35:12.328Z,16.70
2023-04-29T15:39:15.148Z,16.60
2023-04-29T15:43:18.005Z,16.60
2023-04-29T15:47:22.066Z,16.50
2023-04-29T15:51:29.072Z,16.50
2023-04-29T15:55:31.983Z,16.80
2023-04-29T15:59:34.791Z,17.00
2023-04-29T16:03:37.722Z,17.40
2023-04-29T16:07:41.929Z,18.30
2023-04-29T16:11:44.710Z,18.40
2023-04-29T16:15:47.533Z,18.80
2023-04-29T16:19:50.379Z,19.20
2023-04-29T16:23:54.621Z,19.30
2023-04-29T16:27:57.862Z,19.40
2023-04-29T16:32:01.721Z,19.50
2023-04-29T16:36:05.282Z,19.50
2023-04-29T16:40:10.371Z,19.50
2023-04-29T16:44:15.635Z,19.50
2023-04-29T16:48:18.501Z,19.50
2023-04-29T16:52:22.387Z,19.50
2023-04-29T16:56:26.978Z,19.40
2023-04-29T17:00:29.938Z,19.30
2023-04-29T17:04:32.841Z,19.10
2023-04-29T17:08:35.820Z,18.90
2023-04-29T17:12:40.070Z,18.70
2023-04-29T17:16:42.916Z,18.40
2023-04-29T17:20:46.526Z,18.20
2023-04-29T17:24:51.261Z,17.90
2023-04-29T17:28:55.448Z,17.50
2023-04-29T17:32:58.274Z,17.30
2023-04-29T17:37:07.684Z,17.00
2023-04-29T17:41:10.608Z,16.70
2023-04-29T17:45:15.161Z,16.50
2023-04-29T17:49:18.109Z,16.30
2023-04-29T17:53:28.612Z,16.00
2023-04-29T17:57:31.682Z,15.80
2023-04-29T18:01:36.279Z,15.60
2023-04-29T18:05:39.333Z,15.50
2023-04-29T18:09:42.217Z,15.20
2023-04-29T18:13:45.110Z,15.10
2023-04-29T18:17:49.276Z,14.90
2023-04-29T18:21:52.126Z,14.70
2023-04-29T18:25:55.021Z,14.50
2023-04-29T18:29:57.845Z,14.40
2023-04-29T18:34:02.106Z,14.20
2023-04-29T18:38:04.936Z,14.10
2023-04-29T18:42:08.663Z,13.90
2023-04-29T18:46:12.582Z,13.80
2023-04-29T18:50:17.028Z,13.60
2023-04-29T18:54:20.133Z,13.50
2023-04-29T18:58:23.186Z,13.30
2023-04-29T19:02:26.058Z,13.20
2023-04-29T19:06:30.373Z,13.00
2023-04-29T19:10:33.343Z,12.90
2023-04-29T19:14:37.526Z,12.80
2023-04-29T19:18:40.392Z,12.60
2023-04-29T19:22:44.575Z,12.50
2023-04-29T19:26:47.426Z,12.40
2023-04-29T19:30:50.667Z,12.30
2023-04-29T19:34:53.485Z,12.10
2023-04-29T19:38:58.540Z,12.00
2023-04-29T19:43:01.503Z,11.90
2023-04-29T19:47:04.326Z,11.80
2023-04-29T19:51:07.281Z,11.70
2023-04-29T19:55:11.610Z,11.60
2023-04-29T19:59:14.509Z,11.50
2023-04-29T20:03:17.386Z,11.40
2023-04-29T20:07:20.258Z,11.30
2023-04-29T20:11:24.843Z,11.20
2023-04-29T20:15:27.670Z,11.10
2023-04-29T20:19:31.375Z,11.00
2023-04-29T20:23:34.666Z,10.90
2023-04-29T20:27:38.900Z,10.80
2023-04-29T20:31:42.806Z,10.70
2023-04-29T20:35:45.645Z,10.60
2023-04-29T20:39:49.666Z,10.50
2023-04-29T20:43:54.054Z,10.40
2023-04-29T20:52:01.108Z,10.20
2023-04-29T20:56:04.684Z,10.10
2023-04-29T21:00:10.524Z,10.10
2023-04-29T21:04:13.719Z,10.00
2023-04-29T21:12:20.059Z,9.80
2023-04-29T21:20:30.604Z,9.70
2023-04-29T21:24:33.731Z,9.60
2023-04-29T21:28:36.766Z,9.50
2023-04-29T21:32:41.235Z,9.40
2023-04-29T21:36:44.217Z,9.30
2023-04-29T21:40:49.630Z,9.20
2023-04-29T21:44:52.733Z,9.10
2023-04-29T21:48:59.059Z,9.10
2023-04-29T21:53:02.030Z,9.00
2023-04-29T21:57:05.357Z,8.90
2023-04-29T22:01:26.285Z,8.80
2023-04-29T22:05:31.359Z,8.80
2023-04-29T22:09:34.392Z,8.70
2023-04-29T22:13:37.393Z,8.60
2023-04-29T22:17:40.694Z,8.50
2023-04-29T22:21:45.079Z,8.50
2023-04-29T22:25:48.094Z,8.40
2023-04-29T22:29:51.058Z,8.40
2023-04-29T22:33:54.193Z,8.30
2023-04-29T22:37:58.544Z,8.30
2023-04-29T22:42:02.942Z,8.20
2023-04-29T22:46:06.227Z,8.20
2023-04-29T22:50:10.225Z,8.10
2023-04-29T22:54:14.649Z,8.10
2023-04-29T22:58:17.645Z,8.00
2023-04-29T23:02:20.631Z,8.00
2023-04-29T23:06:23.931Z,7.90
2023-04-29T23:10:28.319Z,7.90
2023-04-29T23:14:31.456Z,7.80
2023-04-29T23:18:34.450Z,7.80
2023-04-29T23:22:37.441Z,7.70
2023-04-29T23:26:41.785Z,7.70
2023-04-29T23:30:44.896Z,7.60
2023-04-29T23:34:48.108Z,7.50
2023-04-29T23:38:51.074Z,7.50
2023-04-29T23:42:55.391Z,7.40
2023-04-29T23:46:58.374Z,7.40
2023-04-29T23:51:01.351Z,7.30
2023-04-29T23:55:04.845Z,7.30
2023-04-29T23:59:09.255Z,7.20
